
Distance (Route):
Temperature : 0°C
Humidity : -1.0%
Pressure : -1.0hPa| Receiver | Date | Latitude | Longitude | Direction | Speed | Altitude | Climb | Temperature | Humidity | Pressure | Voltage | Killtimer | Uptime | BKT | XDATA |
|---|---|---|---|---|---|---|---|---|---|---|---|---|---|---|---|
| EDDB2-11 | 2026-09-03 12:13:08 | 50.79595 | 16.10529 | 109° | 82km/h | 9324m | -15.7m/s | 0°C | -1.0% | -1.0hPa | 0V | 00:00:00 | 00:00:00 | 00:00:00 | |
| EDDB2-11 | 2026-09-03 12:11:35 | 50.80284 | 16.08018 | 120° | 78km/h | 10499m | -15.7m/s | 0°C | -1.0% | -1.0hPa | 0V | 00:00:00 | 00:00:00 | 00:00:00 | |
| EDDB2-11 | 2026-09-03 12:11:04 | 50.80559 | 16.07269 | 123° | 80km/h | 10932m | -15.6m/s | 0°C | -1.0% | -1.0hPa | 0V | 00:00:00 | 00:00:00 | 00:00:00 | |
| EDDB2-11 | 2026-09-03 12:10:32 | 50.81138 | 16.06068 | 129° | 110km/h | 11538m | -16.6m/s | 0°C | -1.0% | -1.0hPa | 0V | 00:00:00 | 00:00:00 | 00:00:00 | |
| EDDB2-11 | 2026-09-03 12:09:30 | 50.82281 | 16.03878 | 133° | 108km/h | 11991m | 2.0m/s | 0°C | -1.0% | -1.0hPa | 0V | 00:00:00 | 00:00:00 | 00:00:00 | |
| EDDB2-11 | 2026-09-03 12:09:00 | 50.82656 | 16.03218 | 132° | 119km/h | 11924m | 2.6m/s | 0°C | -1.0% | -1.0hPa | 0V | 00:00:00 | 00:00:00 | 00:00:00 | |
| EDDB2-11 | 2026-09-03 12:08:28 | 50.83244 | 16.02202 | 135° | 106km/h | 11809m | 1.8m/s | 0°C | -1.0% | -1.0hPa | 0V | 00:00:00 | 00:00:00 | 00:00:00 | |
| EDDB2-11 | 2026-09-03 12:07:57 | 50.83763 | 16.01232 | 130° | 104km/h | 11707m | 1.9m/s | 0°C | -1.0% | -1.0hPa | 0V | 00:00:00 | 00:00:00 | 00:00:00 | |
| PETON7-10 | 2026-09-03 12:07:55 | 50.83763 | 16.01232 | 131° | 106km/h | 11707m | 1.9m/s | 0°C | 0% | 0hPa | 0V | 00:00:00 | 00:00:00 | 00:00:00 | |
| EDDB2-11 | 2026-09-03 12:05:53 | 50.86082 | 15.96531 | 128° | 100km/h | 11185m | 3.1m/s | 0°C | -1.0% | -1.0hPa | 0V | 00:00:00 | 00:00:00 | 00:00:00 | |
| EDDB2-11 | 2026-09-03 12:05:22 | 50.86324 | 15.96014 | 123° | 89km/h | 11124m | 1.3m/s | 0°C | -1.0% | -1.0hPa | 0V | 00:00:00 | 00:00:00 | 00:00:00 | |
| EDDB2-11 | 2026-09-03 12:04:51 | 50.86783 | 15.94995 | 131° | 82km/h | 10997m | 1.4m/s | 0°C | -1.0% | -1.0hPa | 0V | 00:00:00 | 00:00:00 | 00:00:00 | |
| EDDB2-11 | 2026-09-03 12:03:49 | 50.87415 | 15.93418 | 116° | 77km/h | 10791m | 2.6m/s | 0°C | -1.0% | -1.0hPa | 0V | 00:00:00 | 00:00:00 | 00:00:00 | |
| EDDB2-11 | 2026-09-03 12:03:18 | 50.87772 | 15.92436 | 112° | 78km/h | 10659m | 2.2m/s | 0°C | -1.0% | -1.0hPa | 0V | 00:00:00 | 00:00:00 | 00:00:00 | |
| EDDB2-11 | 2026-09-03 12:02:16 | 50.88365 | 15.90685 | 111° | 93km/h | 10445m | 1.6m/s | 0°C | -1.0% | -1.0hPa | 0V | 00:00:00 | 00:00:00 | 00:00:00 | |
| EDDB2-11 | 2026-09-03 12:01:45 | 50.88634 | 15.89789 | 120° | 86km/h | 10352m | 1.2m/s | 0°C | -1.0% | -1.0hPa | 0V | 00:00:00 | 00:00:00 | 00:00:00 | |
| EDDB2-11 | 2026-09-03 12:01:14 | 50.88942 | 15.88682 | 113° | 100km/h | 10250m | 2.7m/s | 0°C | -1.0% | -1.0hPa | 0V | 00:00:00 | 00:00:00 | 00:00:00 | |
| EDDB2-11 | 2026-09-03 12:00:43 | 50.89225 | 15.87597 | 106° | 93km/h | 10128m | 1.4m/s | 0°C | -1.0% | -1.0hPa | 0V | 00:00:00 | 00:00:00 | 00:00:00 | |
| EDDB2-11 | 2026-09-03 11:55:01 | 50.91899 | 15.75567 | 106° | 86km/h | 8937m | 3.9m/s | 0°C | -1.0% | -1.0hPa | 0V | 00:00:00 | 00:00:00 | 00:00:00 | |
| EDDB2-11 | 2026-09-03 11:54:30 | 50.92083 | 15.74736 | 111° | 89km/h | 8851m | 0.3m/s | 0°C | -1.0% | -1.0hPa | 0V | 00:00:00 | 00:00:00 | 00:00:00 | |
| EDDB2-11 | 2026-09-03 11:53:28 | 50.92416 | 15.72929 | 111° | 73km/h | 8647m | 0.6m/s | 0°C | -1.0% | -1.0hPa | 0V | 00:00:00 | 00:00:00 | 00:00:00 | |
| EDDB2-11 | 2026-09-03 11:52:57 | 50.92533 | 15.72387 | 113° | 69km/h | 8574m | 3.7m/s | 0°C | -1.0% | -1.0hPa | 0V | 00:00:00 | 00:00:00 | 00:00:00 | |
| EDDB2-11 | 2026-09-03 11:51:55 | 50.92988 | 15.70631 | 110° | 71km/h | 8323m | 2.6m/s | 0°C | -1.0% | -1.0hPa | 0V | 00:00:00 | 00:00:00 | 00:00:00 | |
| EDDB2-11 | 2026-09-03 11:46:44 | 50.95603 | 15.63450 | 120° | 62km/h | 7098m | 3.6m/s | 0°C | -1.0% | -1.0hPa | 0V | 00:00:00 | 00:00:00 | 00:00:00 | |
| EDDB2-11 | 2026-09-03 11:44:09 | 50.96828 | 15.59661 | 107° | 66km/h | 6489m | 1.3m/s | 0°C | -1.0% | -1.0hPa | 0V | 00:00:00 | 00:00:00 | 00:00:00 | |
| EDDB2-11 | 2026-09-03 11:42:05 | 50.97901 | 15.56787 | 111° | 62km/h | 5934m | 2.9m/s | 0°C | -1.0% | -1.0hPa | 0V | 00:00:00 | 00:00:00 | 00:00:00 | |
| EDDB2-11 | 2026-09-03 11:41:34 | 50.98005 | 15.56525 | 116° | 60km/h | 5891m | 0.9m/s | 0°C | -1.0% | -1.0hPa | 0V | 00:00:00 | 00:00:00 | 00:00:00 | |
| EDDB2-11 | 2026-09-03 11:41:03 | 50.98159 | 15.56113 | 124° | 51km/h | 5815m | 2.4m/s | 0°C | -1.0% | -1.0hPa | 0V | 00:00:00 | 00:00:00 | 00:00:00 | |
| EDDB2-11 | 2026-09-03 11:40:32 | 50.98516 | 15.55209 | 118° | 66km/h | 5637m | 3.2m/s | 0°C | -1.0% | -1.0hPa | 0V | 00:00:00 | 00:00:00 | 00:00:00 | |
| EDDB2-11 | 2026-09-03 11:36:55 | 51.00249 | 15.50557 | 105° | 60km/h | 4805m | 1.5m/s | 0°C | -1.0% | -1.0hPa | 0V | 00:00:00 | 00:00:00 | 00:00:00 | |
| EDDB2-11 | 2026-09-03 11:36:23 | 51.00293 | 15.50367 | 111° | 64km/h | 4773m | 1.8m/s | 0°C | -1.0% | -1.0hPa | 0V | 00:00:00 | 00:00:00 | 00:00:00 | |
| EDDB2-11 | 2026-09-03 11:34:19 | 51.00984 | 15.47221 | 101° | 53km/h | 4284m | 2.0m/s | 0°C | -1.0% | -1.0hPa | 0V | 00:00:00 | 00:00:00 | 00:00:00 | |
| EDDB2-11 | 2026-09-03 11:33:48 | 51.01030 | 15.47009 | 115° | 58km/h | 4253m | 1.9m/s | 0°C | -1.0% | -1.0hPa | 0V | 00:00:00 | 00:00:00 | 00:00:00 | |
| EDDB2-11 | 2026-09-03 11:33:17 | 51.01143 | 15.46518 | 114° | 49km/h | 4170m | 2.9m/s | 0°C | -1.0% | -1.0hPa | 0V | 00:00:00 | 00:00:00 | 00:00:00 |